F/V Berriz Patxiku — ECES — position and weather

sailwx.info

Track history (hours):
 
Tides and Currents Weather Stations Pressure Air Temp Water Temp Dewpoint Dewpoint Depression Visibility Wind Speed Wind Dir Waves Ship Positions

F/V Berriz Patxiku

Last reported at 2014-Jul-23 19:31 UTC. Time now 2014-Jul-23 19:52 UTC.
Position N 43°25' W 002°31'.

Length 30 m.

Type: Fishing. MMSI: 224106260.

Date/timePositionNaut miles runAvg speedWind from/ knotsBaromVisibWave heightAir tempDewpointWater temp
2014-Jul-23 19:31N 43°25' W 002°31'  
2014-Jul-18 03:14N 43°21' W 002°11'1 0.4
2014-Jul-18 00:30N 43°21' W 002°09'2 1.1
2014-Jul-17 23:07N 43°22' W 002°08'1 0.4
2014-Jul-17 19:25N 43°21' W 002°09'5 0.4
2014-Jul-17 05:18N 43°22' W 002°16'3 2.9
2014-Jul-17 04:16N 43°23' W 002°19'1 1.4
2014-Jul-17 03:32N 43°23' W 002°21'1 0.6
2014-Jul-17 02:24N 43°23' W 002°20'2 2.1
2014-Jul-17 01:33N 43°22' W 002°18'0 0.5
2014-Jul-17 00:32N 43°22' W 002°18'1 0.3
2014-Jul-16 22:20N 43°23' W 002°19'2 0.7
2014-Jul-16 19:31N 43°23' W 002°21'8 0.2
2014-Jul-15 04:33N 43°27' W 002°31'9 8.8
2014-Jul-15 03:33N 43°31' W 002°41'4 4.0
2014-Jul-15 02:33N 43°33' W 002°46'0 0.3
2014-Jul-15 01:34N 43°32' W 002°46'0 0.3
2014-Jul-15 00:33N 43°32' W 002°45'1 0.5
2014-Jul-14 23:34N 43°32' W 002°45'1 0.6
2014-Jul-14 22:33N 43°32' W 002°44'0 0.5
2014-Jul-14 21:33N 43°33' W 002°43'18 0.7
2014-Jul-13 20:31N 43°32' W 002°19'  
Track history (hours):
 
Tides and Currents Weather Stations Pressure Air Temp Water Temp Dewpoint Dewpoint Depression Visibility Wind Speed Wind Dir Waves Ship Positions

F/V Berriz Patxiku

Last reported at 2014-Jul-23 19:31 UTC. Time now 2014-Jul-23 19:52 UTC.
Position N 43°25' W 002°31'.

Length 30 m.

Type: Fishing. MMSI: 224106260.

Date/timePositionNaut miles runAvg speedWind from/ knotsBaromVisibWave heightAir tempDewpointWater temp
2014-Jul-23 19:31N 43°25' W 002°31'  
2014-Jul-18 03:14N 43°21' W 002°11'1 0.4
2014-Jul-18 00:30N 43°21' W 002°09'2 1.1
2014-Jul-17 23:07N 43°22' W 002°08'1 0.4
2014-Jul-17 19:25N 43°21' W 002°09'5 0.4
2014-Jul-17 05:18N 43°22' W 002°16'3 2.9
2014-Jul-17 04:16N 43°23' W 002°19'1 1.4
2014-Jul-17 03:32N 43°23' W 002°21'1 0.6
2014-Jul-17 02:24N 43°23' W 002°20'2 2.1
2014-Jul-17 01:33N 43°22' W 002°18'0 0.5
2014-Jul-17 00:32N 43°22' W 002°18'1 0.3
2014-Jul-16 22:20N 43°23' W 002°19'2 0.7
2014-Jul-16 19:31N 43°23' W 002°21'8 0.2
2014-Jul-15 04:33N 43°27' W 002°31'9 8.8
2014-Jul-15 03:33N 43°31' W 002°41'4 4.0
2014-Jul-15 02:33N 43°33' W 002°46'0 0.3
2014-Jul-15 01:34N 43°32' W 002°46'0 0.3
2014-Jul-15 00:33N 43°32' W 002°45'1 0.5
2014-Jul-14 23:34N 43°32' W 002°45'1 0.6
2014-Jul-14 22:33N 43°32' W 002°44'0 0.5
2014-Jul-14 21:33N 43°33' W 002°43'18 0.7
2014-Jul-13 20:31N 43°32' W 002°19'  

Dump ship's entire track history